Bluff Point, New York
Current Conditions -  °F | °C
As of 7:53 AM on Wednesday 22 Oct 2014 (Local Time) from KPEO Reporting Station
Haze Haze  
Wind Chill: 44°   Ceiling: 300
Heat Index: 46°   Visibility: 4mi
Dew Point: 44°   Wind: 5mph
Humidity: 93%   Direction: NA
Pressure: 30.12"   Gusts: NA
Location:  42.58°N, 77.128°W
Report Text: KPEO 221153Z AUTO VRB04KT 4SM BR OVC003 08/07 A3012 RMK AO2 SLP204 60000 70024 T00780067 10078 20078 51019
Loading
Personal Weather Stations






























Interactive Weather Map
Tropical Storm Tracking
New forecast layout! Learn more

10-Day Weather Forecast

Advertisements
Track Severe Weather on mobile